Time;durP1;ratioP1;P1;durP2;ratioP2;P2;SDS_P1;SDS_P2;PMS_P1;PMS_P2;Temp;Humidity;BMP_temperature;BMP_pressure;BME280_temperature;BME280_humidity;BME280_pressure;Samples;Min_cycle;Max_cycle;Signal;HPM_P1;HPM_P2
2022/06/01 00:00:52;;;;;;;;;;;11.10;99.90;;;;;;5052855;28;19966;-79
2022/06/01 00:03:18;;;;;;;;;;;11.10;99.90;;;;;;5070771;28;19927;-80
2022/06/01 00:05:43;;;;;;;;;;;11.10;99.90;;;;;;5052752;28;19920;-80
2022/06/01 00:08:09;;;;;;;;;;;11.10;99.90;;;;;;5052535;28;19920;-80
2022/06/01 00:10:35;;;;;;;;;;;11.10;99.90;;;;;;5085945;28;20014;-80
2022/06/01 00:13:01;;;;;;;;;;;11.20;99.90;;;;;;5069802;28;19927;-80
2022/06/01 00:15:27;;;;;;;;;;;11.10;99.90;;;;;;5070509;28;19920;-80
2022/06/01 00:17:53;;;;;;;;;;;11.20;99.90;;;;;;5070487;28;19925;-79
2022/06/01 00:20:18;;;;;;;;;;;11.20;99.90;;;;;;5070628;28;20015;-80
2022/06/01 00:22:44;;;;;;;;;;;11.20;99.90;;;;;;5051756;28;19920;-80
2022/06/01 00:25:11;;;;;;;;;;;11.30;99.90;;;;;;5070549;28;19920;-79
2022/06/01 00:27:37;;;;;;;;;;;11.30;99.90;;;;;;5070158;28;19940;-79
2022/06/01 00:30:07;;;;;;;;;;;11.30;99.90;;;;;;5070221;28;19928;-80
2022/06/01 00:32:32;;;;;;;;;;;11.30;99.90;;;;;;5069834;28;19921;-80
2022/06/01 00:34:59;;;;;;;;;;;11.30;99.90;;;;;;5070313;28;19931;-80
2022/06/01 00:37:25;;;;;;;;;;;11.40;99.90;;;;;;5069734;28;19930;-79
2022/06/01 00:39:51;;;;;;;;;;;11.40;99.90;;;;;;5056260;28;19921;-80
2022/06/01 00:42:18;;;;;;;;;;;11.40;99.90;;;;;;5070220;28;20302;-80
2022/06/01 00:44:44;;;;;;;;;;;11.40;99.90;;;;;;5069753;28;19924;-80
2022/06/01 00:47:10;;;;;;;;;;;11.40;99.90;;;;;;5070140;28;19920;-80
2022/06/01 00:49:37;;;;;;;;;;;11.40;99.90;;;;;;5051989;28;20042;-80
2022/06/01 00:52:02;;;;;;;;;;;11.40;99.90;;;;;;5051502;28;20666;-80
2022/06/01 00:54:28;;;;;;;;;;;11.40;99.90;;;;;;5051787;28;19920;-80
2022/06/01 00:56:59;;;;;;;;;;;11.40;99.90;;;;;;5061511;28;19981;-79
2022/06/01 00:59:28;;;;;;;;;;;11.40;99.90;;;;;;5085076;28;19966;-80
2022/06/01 01:01:55;;;;;;;;;;;11.50;99.90;;;;;;5051503;28;19920;-80
2022/06/01 01:04:21;;;;;;;;;;;11.40;99.90;;;;;;5044125;28;20011;-80
2022/06/01 01:06:47;;;;;;;;;;;11.40;99.90;;;;;;5063360;28;19979;-80
2022/06/01 01:09:13;;;;;;;;;;;11.40;99.90;;;;;;5069680;28;20448;-80
2022/06/01 01:11:41;;;;;;;;;;;11.40;99.90;;;;;;5069489;28;20015;-80
2022/06/01 01:14:06;;;;;;;;;;;11.40;99.90;;;;;;5051601;28;19921;-79
2022/06/01 01:16:34;;;;;;;;;;;11.40;99.90;;;;;;5070003;28;19921;-80
2022/06/01 01:19:00;;;;;;;;;;;11.50;99.90;;;;;;5051309;28;19928;-81
2022/06/01 01:21:46;;;;;;;;;;;11.40;99.90;;;;;;5069722;28;19939;-80
2022/06/01 01:24:17;;;;;;;;;;;11.50;99.90;;;;;;5072305;28;19927;-80
2022/06/01 01:26:47;;;;;;;;;;;11.40;99.90;;;;;;5073122;28;19920;-80
2022/06/01 01:29:13;;;;;;;;;;;11.40;99.90;;;;;;5073506;28;20385;-80
2022/06/01 01:31:39;;;;;;;;;;;11.40;99.90;;;;;;5055682;28;19942;-80
2022/06/01 01:34:05;;;;;;;;;;;11.40;99.90;;;;;;5073516;28;20446;-80
2022/06/01 01:36:35;;;;;;;;;;;11.40;99.90;;;;;;5055528;28;19927;-80
2022/06/01 01:39:11;;;;;;;;;;;11.40;99.90;;;;;;5064638;28;20018;-80
2022/06/01 01:42:03;;;;;;;;;;;11.40;99.90;;;;;;5067116;28;19920;-79
2022/06/01 01:44:48;;;;;;;;;;;11.40;99.90;;;;;;5049850;28;19924;-80
2022/06/01 01:47:14;;;;;;;;;;;11.40;99.90;;;;;;5044749;28;19927;-79
2022/06/01 01:49:41;;;;;;;;;;;11.40;99.90;;;;;;5055386;28;19924;-80
2022/06/01 01:52:17;;;;;;;;;;;11.40;99.90;;;;;;5055213;28;20124;-80
2022/06/01 01:54:59;;;;;;;;;;;11.40;99.90;;;;;;5088803;28;19920;-80
2022/06/01 01:57:36;;;;;;;;;;;11.40;99.90;;;;;;5051643;28;19920;-80
2022/06/01 02:00:05;;;;;;;;;;;11.30;99.90;;;;;;5055415;28;19930;-81
2022/06/01 02:02:33;;;;;;;;;;;11.30;99.90;;;;;;5088680;28;20011;-80
2022/06/01 02:07:50;;;;;;;;;;;11.30;99.90;;;;;;5054493;28;19927;-80
2022/06/01 02:13:00;;;;;;;;;;;11.20;99.90;;;;;;5081140;28;20006;-81
2022/06/01 02:15:30;;;;;;;;;;;11.20;99.90;;;;;;5055123;28;19959;-80
2022/06/01 02:17:58;;;;;;;;;;;11.10;99.90;;;;;;5072643;28;19924;-80
2022/06/01 02:20:27;;;;;;;;;;;11.10;99.90;;;;;;5047653;28;20009;-80
2022/06/01 02:22:53;;;;;;;;;;;11.10;99.90;;;;;;5072640;28;20009;-80
2022/06/01 02:25:19;;;;;;;;;;;11.20;99.90;;;;;;5072496;28;20301;-81
2022/06/01 02:27:46;;;;;;;;;;;11.10;99.90;;;;;;5072588;28;19924;-80
2022/06/01 02:30:14;;;;;;;;;;;11.10;99.90;;;;;;5072158;28;20018;-80
2022/06/01 02:32:40;;;;;;;;;;;11.10;99.90;;;;;;5078245;28;19929;-80
2022/06/01 02:35:07;;;;;;;;;;;11.10;99.90;;;;;;5067198;28;20007;-80
2022/06/01 02:37:34;;;;;;;;;;;11.10;99.90;;;;;;5047156;28;19997;-80
2022/06/01 02:40:00;;;;;;;;;;;11.10;99.90;;;;;;5072249;28;20011;-80
2022/06/01 02:42:26;;;;;;;;;;;11.00;99.90;;;;;;5079164;28;20293;-80
2022/06/01 02:44:55;;;;;;;;;;;11.00;99.90;;;;;;5045453;28;19920;-80
2022/06/01 02:47:21;;;;;;;;;;;11.00;99.90;;;;;;5052374;28;19920;-80
2022/06/01 02:49:47;;;;;;;;;;;11.00;99.90;;;;;;5086951;28;19934;-80
2022/06/01 02:52:12;;;;;;;;;;;10.90;99.90;;;;;;5052755;28;20339;-80
2022/06/01 02:54:38;;;;;;;;;;;10.90;99.90;;;;;;5054313;28;19921;-80
2022/06/01 02:57:04;;;;;;;;;;;10.90;99.90;;;;;;5054213;28;20007;-80
2022/06/01 02:59:29;;;;;;;;;;;10.90;99.90;;;;;;5052371;28;20037;-80
2022/06/01 03:01:55;;;;;;;;;;;10.80;99.90;;;;;;5053823;28;19927;-80
2022/06/01 03:04:21;;;;;;;;;;;10.80;99.90;;;;;;5072161;28;19921;-80
2022/06/01 03:06:47;;;;;;;;;;;10.80;99.90;;;;;;5086907;28;20440;-80
2022/06/01 03:09:12;;;;;;;;;;;10.80;99.90;;;;;;5053741;28;19946;-80
2022/06/01 03:11:38;;;;;;;;;;;10.80;99.90;;;;;;5053497;28;19928;-80
2022/06/01 03:14:03;;;;;;;;;;;10.70;99.90;;;;;;5053647;28;19982;-80
2022/06/01 03:16:29;;;;;;;;;;;10.70;99.90;;;;;;5070114;28;19982;-80
2022/06/01 03:18:54;;;;;;;;;;;10.70;99.90;;;;;;5053355;28;20412;-79
2022/06/01 03:21:20;;;;;;;;;;;10.70;99.90;;;;;;5053185;28;19927;-80
2022/06/01 03:23:45;;;;;;;;;;;10.70;99.90;;;;;;5104068;28;20018;-80
2022/06/01 03:26:12;;;;;;;;;;;10.70;99.90;;;;;;5087328;28;20904;-80
2022/06/01 03:28:39;;;;;;;;;;;10.70;99.90;;;;;;5053171;28;20382;-79
2022/06/01 03:31:06;;;;;;;;;;;10.70;99.90;;;;;;5053067;28;19959;-80
2022/06/01 03:33:37;;;;;;;;;;;10.70;99.90;;;;;;5071548;28;19920;-80
2022/06/01 03:36:03;;;;;;;;;;;10.80;99.90;;;;;;5070930;28;19928;-80
2022/06/01 03:38:29;;;;;;;;;;;10.70;99.90;;;;;;5086859;28;19920;-79
2022/06/01 03:40:54;;;;;;;;;;;10.80;99.90;;;;;;5052918;28;19928;-80
2022/06/01 03:43:20;;;;;;;;;;;10.80;99.90;;;;;;5103808;28;19925;-80
2022/06/01 03:45:59;;;;;;;;;;;10.80;99.90;;;;;;5040065;28;19932;-80
2022/06/01 03:48:29;;;;;;;;;;;10.70;99.90;;;;;;5064370;28;19955;-80
2022/06/01 03:50:56;;;;;;;;;;;10.80;99.90;;;;;;5070603;28;20465;-80
2022/06/01 03:53:23;;;;;;;;;;;10.80;99.90;;;;;;5070023;28;19920;-81
2022/06/01 03:55:49;;;;;;;;;;;10.80;99.90;;;;;;5046771;28;19970;-80
2022/06/01 03:58:16;;;;;;;;;;;10.80;99.90;;;;;;5084900;28;19921;-80
2022/06/01 04:00:41;;;;;;;;;;;10.80;99.90;;;;;;5086359;28;20297;-81
2022/06/01 04:03:07;;;;;;;;;;;10.80;99.90;;;;;;5085597;28;19921;-80
2022/06/01 04:05:32;;;;;;;;;;;10.80;99.90;;;;;;5062583;28;20329;-81
2022/06/01 04:07:58;;;;;;;;;;;10.80;99.90;;;;;;5052798;28;20394;-80
2022/06/01 04:10:24;;;;;;;;;;;10.80;99.90;;;;;;5053250;28;20333;-80
2022/06/01 04:12:49;;;;;;;;;;;10.80;99.90;;;;;;5052243;28;19920;-80
2022/06/01 04:15:15;;;;;;;;;;;10.80;99.90;;;;;;5052747;28;19920;-80
2022/06/01 04:17:41;;;;;;;;;;;10.80;99.90;;;;;;5052327;28;20033;-80
2022/06/01 04:20:07;;;;;;;;;;;10.80;99.90;;;;;;5070569;28;19948;-80
2022/06/01 04:22:33;;;;;;;;;;;10.80;99.90;;;;;;5061805;28;19924;-80
2022/06/01 04:24:59;;;;;;;;;;;10.80;99.90;;;;;;5052459;28;19926;-80
2022/06/01 04:27:24;;;;;;;;;;;10.80;99.90;;;;;;5052287;28;19920;-80
2022/06/01 04:29:50;;;;;;;;;;;10.80;99.90;;;;;;5070029;28;19982;-80
2022/06/01 04:32:17;;;;;;;;;;;10.80;99.90;;;;;;5052227;28;19924;-80
2022/06/01 04:34:43;;;;;;;;;;;10.90;99.90;;;;;;5052293;28;19920;-80
2022/06/01 04:37:08;;;;;;;;;;;10.90;99.90;;;;;;5052483;28;20435;-80
2022/06/01 04:39:34;;;;;;;;;;;10.90;99.90;;;;;;5051800;28;19927;-80
2022/06/01 04:41:59;;;;;;;;;;;11.00;99.90;;;;;;5052079;28;19924;-81
2022/06/01 04:44:25;;;;;;;;;;;11.00;99.90;;;;;;5052156;28;19927;-80
2022/06/01 04:46:51;;;;;;;;;;;11.10;99.90;;;;;;5085595;28;20365;-80
2022/06/01 04:49:16;;;;;;;;;;;11.00;99.90;;;;;;5070371;28;19971;-80
2022/06/01 04:51:42;;;;;;;;;;;11.10;99.90;;;;;;5051703;28;20014;-80
2022/06/01 04:54:08;;;;;;;;;;;11.10;99.90;;;;;;5069638;28;19920;-80
2022/06/01 04:56:34;;;;;;;;;;;11.10;99.90;;;;;;5037854;28;19920;-80
2022/06/01 04:59:00;;;;;;;;;;;11.20;99.90;;;;;;5084881;28;20003;-81
2022/06/01 05:01:25;;;;;;;;;;;11.20;99.90;;;;;;5057155;28;19921;-81
2022/06/01 05:03:51;;;;;;;;;;;11.20;99.90;;;;;;5067951;28;19924;-80
2022/06/01 05:06:17;;;;;;;;;;;11.20;99.90;;;;;;5070002;28;19924;-80
2022/06/01 05:08:42;;;;;;;;;;;11.20;99.90;;;;;;5069678;28;19927;-80
2022/06/01 05:11:08;;;;;;;;;;;11.20;99.90;;;;;;5069575;28;19924;-81
2022/06/01 05:13:33;;;;;;;;;;;11.20;99.90;;;;;;5051960;28;19927;-81
2022/06/01 05:16:01;;;;;;;;;;;11.20;99.90;;;;;;5069327;28;19931;-80
2022/06/01 05:18:27;;;;;;;;;;;11.20;99.90;;;;;;5051883;28;19928;-80
2022/06/01 05:20:54;;;;;;;;;;;11.20;99.90;;;;;;5085190;28;19924;-81
2022/06/01 05:23:20;;;;;;;;;;;11.20;99.90;;;;;;5074423;28;19921;-80
2022/06/01 05:25:46;;;;;;;;;;;11.30;99.90;;;;;;5063739;28;20010;-81
2022/06/01 05:28:15;;;;;;;;;;;11.30;99.90;;;;;;5073469;28;19931;-81
2022/06/01 05:30:41;;;;;;;;;;;11.30;99.90;;;;;;5051523;28;20003;-81
2022/06/01 05:33:07;;;;;;;;;;;11.30;99.90;;;;;;5051760;28;20015;-80
2022/06/01 05:35:32;;;;;;;;;;;11.30;99.90;;;;;;5069645;28;19920;-81
2022/06/01 05:37:58;;;;;;;;;;;11.40;99.90;;;;;;5045761;28;19925;-80
2022/06/01 05:40:25;;;;;;;;;;;11.40;99.90;;;;;;5060002;28;19927;-78
2022/06/01 05:42:51;;;;;;;;;;;11.40;99.90;;;;;;5084744;28;19920;-78
2022/06/01 05:45:17;;;;;;;;;;;11.50;99.90;;;;;;5083409;28;19928;-78
2022/06/01 05:47:42;;;;;;;;;;;11.60;99.90;;;;;;5050135;28;19942;-79
2022/06/01 05:50:08;;;;;;;;;;;11.60;99.90;;;;;;5070270;28;19921;-78
2022/06/01 05:52:38;;;;;;;;;;;11.70;99.90;;;;;;5068100;28;20309;-79
2022/06/01 05:55:05;;;;;;;;;;;11.80;99.90;;;;;;5063446;28;19925;-79
2022/06/01 05:57:31;;;;;;;;;;;11.90;99.90;;;;;;5080100;28;20283;-79
2022/06/01 05:59:56;;;;;;;;;;;11.90;99.90;;;;;;5042367;28;19950;-79
2022/06/01 06:02:22;;;;;;;;;;;12.00;99.90;;;;;;5060964;28;19971;-80
2022/06/01 06:04:47;;;;;;;;;;;12.00;99.90;;;;;;5050713;28;19971;-80
2022/06/01 06:07:13;;;;;;;;;;;12.10;99.90;;;;;;5043505;28;20373;-79
2022/06/01 06:09:38;;;;;;;;;;;12.20;99.90;;;;;;5051920;28;20003;-80
2022/06/01 06:12:04;;;;;;;;;;;12.30;99.90;;;;;;5053190;28;20039;-80
2022/06/01 06:14:30;;;;;;;;;;;12.40;99.90;;;;;;5087635;28;19926;-79
2022/06/01 06:16:55;;;;;;;;;;;12.50;99.90;;;;;;5072448;28;19927;-79
2022/06/01 06:19:21;;;;;;;;;;;12.60;99.90;;;;;;5072287;28;20581;-80
2022/06/01 06:21:47;;;;;;;;;;;12.60;99.90;;;;;;5054357;28;19928;-79
2022/06/01 06:24:14;;;;;;;;;;;12.70;99.90;;;;;;5072265;28;19920;-80
2022/06/01 06:26:42;;;;;;;;;;;12.80;99.90;;;;;;5072058;28;19921;-79
2022/06/01 06:29:09;;;;;;;;;;;12.90;99.90;;;;;;5054221;28;19920;-80
2022/06/01 06:31:35;;;;;;;;;;;12.90;99.90;;;;;;5054062;28;19952;-80
2022/06/01 06:34:00;;;;;;;;;;;12.90;99.90;;;;;;5054111;28;19920;-80
2022/06/01 06:36:26;;;;;;;;;;;13.00;99.90;;;;;;5087526;28;20220;-80
2022/06/01 06:38:52;;;;;;;;;;;13.00;99.90;;;;;;5071941;28;19925;-80
2022/06/01 06:41:17;;;;;;;;;;;13.00;99.90;;;;;;5072132;28;19936;-79
2022/06/01 06:43:43;;;;;;;;;;;13.00;99.90;;;;;;5071918;28;19920;-79
2022/06/01 06:46:10;;;;;;;;;;;13.10;99.90;;;;;;5054106;28;19935;-80
2022/06/01 06:48:36;;;;;;;;;;;13.20;99.90;;;;;;5053922;28;20674;-79
2022/06/01 06:51:02;;;;;;;;;;;13.20;99.90;;;;;;5071884;28;19928;-79
2022/06/01 06:53:28;;;;;;;;;;;13.20;99.90;;;;;;5039999;28;20261;-79
2022/06/01 06:55:54;;;;;;;;;;;13.20;99.90;;;;;;5054086;28;20014;-80
2022/06/01 06:58:20;;;;;;;;;;;13.20;99.90;;;;;;5053808;28;19925;-80
2022/06/01 07:00:46;;;;;;;;;;;13.30;99.90;;;;;;5072124;28;19924;-79
2022/06/01 07:03:12;;;;;;;;;;;13.30;99.90;;;;;;5071610;28;19927;-80
2022/06/01 07:08:22;;;;;;;;;;;13.30;99.90;;;;;;5083043;28;19920;-79
2022/06/01 07:10:48;;;;;;;;;;;13.30;99.90;;;;;;5087347;28;20926;-79
2022/06/01 07:13:13;;;;;;;;;;;13.30;99.90;;;;;;5071433;28;19920;-80
2022/06/01 07:15:39;;;;;;;;;;;13.40;99.90;;;;;;5071558;28;19920;-80
2022/06/01 07:18:05;;;;;;;;;;;13.40;99.90;;;;;;5071795;28;19924;-79
2022/06/01 07:20:31;;;;;;;;;;;13.40;99.90;;;;;;5071166;28;19921;-79
2022/06/01 07:22:56;;;;;;;;;;;13.40;99.90;;;;;;5070979;28;20373;-79
2022/06/01 07:25:22;;;;;;;;;;;13.50;99.90;;;;;;5087122;28;19920;-79
2022/06/01 07:27:49;;;;;;;;;;;13.50;99.90;;;;;;5071188;28;19970;-79
2022/06/01 07:30:15;;;;;;;;;;;13.60;99.90;;;;;;5071696;28;20263;-79
2022/06/01 07:32:43;;;;;;;;;;;13.60;99.90;;;;;;5071149;28;19962;-79
2022/06/01 07:35:09;;;;;;;;;;;13.60;99.90;;;;;;5071111;28;20401;-79
2022/06/01 07:43:05;;;;;;;;;;;13.80;99.90;;;;;;5053356;28;19921;-79
2022/06/01 07:45:33;;;;;;;;;;;13.90;99.90;;;;;;5066755;28;19928;-79
2022/06/01 07:47:58;;;;;;;;;;;14.00;99.90;;;;;;5070646;28;20366;-79
2022/06/01 07:50:24;;;;;;;;;;;14.10;99.90;;;;;;5071041;28;19920;-79
2022/06/01 07:52:49;;;;;;;;;;;14.20;99.90;;;;;;5066949;28;19924;-80
2022/06/01 07:55:15;;;;;;;;;;;14.20;99.90;;;;;;5042186;28;19927;-79
2022/06/01 07:57:40;;;;;;;;;;;14.20;99.90;;;;;;5070571;28;19924;-79
2022/06/01 08:00:06;;;;;;;;;;;14.20;99.90;;;;;;5052821;28;19968;-79
2022/06/01 08:02:32;;;;;;;;;;;14.10;99.90;;;;;;5086350;28;19920;-79
2022/06/01 08:04:57;;;;;;;;;;;14.00;99.90;;;;;;5050221;28;20238;-79
2022/06/01 08:07:23;;;;;;;;;;;13.80;99.90;;;;;;5064556;28;20390;-80
2022/06/01 08:09:48;;;;;;;;;;;13.60;99.90;;;;;;5052576;28;19920;-80
2022/06/01 08:14:58;;;;;;;;;;;13.40;99.90;;;;;;5085989;28;20003;-79
2022/06/01 08:17:24;;;;;;;;;;;13.20;99.90;;;;;;5056104;28;19999;-80
2022/06/01 08:19:49;;;;;;;;;;;13.20;99.90;;;;;;5052611;28;20412;-80
2022/06/01 08:22:15;;;;;;;;;;;13.10;99.90;;;;;;5070309;28;19920;-80
2022/06/01 08:24:41;;;;;;;;;;;13.10;99.90;;;;;;5052088;28;20455;-79
2022/06/01 08:27:06;;;;;;;;;;;13.10;99.90;;;;;;5071372;28;19920;-80
2022/06/01 08:29:32;;;;;;;;;;;13.10;99.90;;;;;;5070348;28;19966;-80
2022/06/01 08:31:57;;;;;;;;;;;13.10;99.90;;;;;;5052116;28;19977;-80
2022/06/01 08:34:23;;;;;;;;;;;13.10;99.90;;;;;;5069133;28;19965;-80
2022/06/01 08:36:48;;;;;;;;;;;13.10;99.90;;;;;;5051937;28;19927;-80
2022/06/01 08:39:14;;;;;;;;;;;13.10;99.90;;;;;;5070053;28;19950;-80
2022/06/01 08:41:40;;;;;;;;;;;13.10;99.90;;;;;;5069191;28;19927;-80
2022/06/01 08:44:25;;;;;;;;;;;13.10;99.90;;;;;;5085776;28;19921;-80
2022/06/01 08:46:52;;;;;;;;;;;13.10;99.90;;;;;;5044079;28;19931;-79
2022/06/01 08:49:22;;;;;;;;;;;13.10;99.90;;;;;;5052303;28;19920;-80
2022/06/01 08:51:48;;;;;;;;;;;13.10;99.90;;;;;;5070017;28;20453;-80
2022/06/01 08:54:13;;;;;;;;;;;13.20;99.90;;;;;;5052011;28;19925;-80
2022/06/01 08:56:39;;;;;;;;;;;13.20;99.90;;;;;;5085516;28;19928;-80
2022/06/01 08:59:23;;;;;;;;;;;13.20;99.90;;;;;;5051837;28;19921;-80
2022/06/01 09:02:07;;;;;;;;;;;13.40;99.90;;;;;;5057599;28;19921;-79
2022/06/01 09:04:51;;;;;;;;;;;13.50;99.90;;;;;;5085114;28;19920;-80
2022/06/01 09:07:23;;;;;;;;;;;13.50;99.90;;;;;;5085596;28;19920;-79
2022/06/01 09:10:04;;;;;;;;;;;13.60;99.90;;;;;;5069585;28;19946;-80
2022/06/01 09:12:31;;;;;;;;;;;13.70;99.90;;;;;;5072912;28;20301;-80
2022/06/01 09:14:58;;;;;;;;;;;13.80;99.90;;;;;;5051784;28;20043;-80
2022/06/01 09:17:24;;;;;;;;;;;13.90;99.90;;;;;;5079254;28;19921;-80
2022/06/01 09:22:38;;;;;;;;;;;14.10;99.90;;;;;;5072393;28;19921;-80
2022/06/01 09:25:15;;;;;;;;;;;14.30;99.90;;;;;;5069343;28;19994;-80
2022/06/01 09:27:53;;;;;;;;;;;14.50;99.90;;;;;;5038607;28;19924;-80
2022/06/01 09:30:24;;;;;;;;;;;14.60;99.90;;;;;;5051738;28;19920;-80
2022/06/01 09:32:59;;;;;;;;;;;14.80;99.90;;;;;;5051498;28;19920;-80
2022/06/01 09:35:28;;;;;;;;;;;15.10;99.90;;;;;;5069380;28;20036;-80
2022/06/01 09:37:53;;;;;;;;;;;15.50;99.90;;;;;;5069518;28;20267;-80
2022/06/01 09:40:32;;;;;;;21.27;6.45;;;15.80;99.90;;;;;;5069348;28;19935;-80
2022/06/01 09:43:00;;;;;;;5.40;4.53;;;15.90;99.90;;;;;;5055272;28;20032;-80
2022/06/01 09:45:27;;;;;;;;;;;16.00;99.90;;;;;;5072819;28;20049;-80
2022/06/01 09:47:53;;;;;;;;;;;16.20;99.90;;;;;;5054024;28;19924;-80
2022/06/01 09:50:21;;;;;;;;;;;16.50;99.90;;;;;;5054666;28;19999;-80
2022/06/01 09:52:46;;;;;;;;;;;16.70;99.90;;;;;;5054331;28;19924;-81
2022/06/01 09:55:15;;;;;;;;;;;17.00;99.90;;;;;;5063805;28;19921;-80
2022/06/01 09:57:41;;;;;;;;;;;17.30;99.90;;;;;;5068755;28;20307;-80
2022/06/01 10:06:17;;;;;;;;;;;16.90;99.90;;;;;;5030604;28;20610;-79
2022/06/01 10:08:54;;;;;;;;;;;16.70;99.90;;;;;;5043353;28;19920;-80
2022/06/01 10:11:27;;;;;;;;;;;16.50;99.90;;;;;;5054557;28;20381;-80
2022/06/01 10:13:53;;;;;;;;;;;16.20;99.90;;;;;;5053815;28;20278;-80
2022/06/01 10:16:31;;;;;;;;;;;16.10;99.90;;;;;;5088177;28;19935;-80
2022/06/01 10:18:58;;;;;;;;;;;16.00;99.90;;;;;;5054663;28;19940;-79
2022/06/01 10:21:29;;;;;;;;;;;15.90;99.90;;;;;;5087692;28;19924;-80
2022/06/01 10:24:04;;;;;;;;;;;15.90;99.90;;;;;;5054256;28;19928;-80
2022/06/01 10:26:37;;;;;;;;;;;15.90;99.90;;;;;;5088701;28;19924;-80
2022/06/01 10:29:06;;;;;;;;;;;16.00;99.90;;;;;;5088247;28;19921;-80
2022/06/01 10:31:36;;;;;;;;;;;16.30;99.90;;;;;;5072515;28;19920;-80
2022/06/01 10:34:04;;;;;;;;;;;16.60;99.90;;;;;;5072033;28;19920;-80
2022/06/01 10:36:30;;;;;;;;;;;16.70;99.90;;;;;;5072417;28;19924;-80
2022/06/01 10:39:00;;;;;;;;;;;16.70;99.90;;;;;;5071650;28;20011;-80
2022/06/01 10:41:31;;;;;;;;;;;16.60;99.90;;;;;;5059054;28;20380;-80
2022/06/01 10:44:08;;;;;;;;;;;16.50;99.90;;;;;;5071917;28;19971;-80
2022/06/01 10:46:47;;;;;;;;;;;16.80;99.90;;;;;;5059457;28;19920;-80
2022/06/01 10:49:22;;;;;;;;;;;17.20;99.90;;;;;;5072088;28;20351;-80
2022/06/01 10:52:03;;;;;;;;;;;17.30;99.90;;;;;;5071879;28;19928;-80
2022/06/01 10:54:52;;;;;;;;;;;17.40;99.90;;;;;;5071914;28;19924;-80
2022/06/01 10:57:18;;;;;;;;;;;17.50;99.90;;;;;;5033932;28;20034;-80
2022/06/01 10:59:47;;;;;;;;;;;17.40;99.90;;;;;;5086576;28;21554;-80
2022/06/01 11:02:37;;;;;;;;;;;17.20;99.90;;;;;;5087194;28;19960;-80
2022/06/01 11:05:13;;;;;;;;;;;17.10;99.90;;;;;;5087171;28;19931;-80
2022/06/01 11:07:53;;;;;;;;;;;17.20;99.90;;;;;;5054056;28;20283;-80
2022/06/01 11:10:37;;;;;;;;;;;17.30;99.90;;;;;;5072159;28;19924;-80
2022/06/01 11:13:21;;;;;;;;;;;17.20;99.90;;;;;;5052878;28;20458;-80
2022/06/01 11:15:56;;;;;;;;;;;16.90;99.90;;;;;;5075898;28;19951;-79
2022/06/01 11:18:40;;;;;;;;;;;16.80;99.90;;;;;;5053405;28;19978;-80
2022/06/01 11:21:18;;;;;;;;;;;16.70;99.90;;;;;;5087353;28;19924;-79
2022/06/01 11:23:49;;;;;;;;;;;16.70;99.90;;;;;;5053162;28;19978;-80
2022/06/01 11:26:34;;;;;;;;;;;16.70;99.90;;;;;;5053502;28;20450;-79
2022/06/01 11:28:59;;;;;;;;;;;16.70;99.90;;;;;;5086718;28;19928;-80
2022/06/01 11:31:26;;;;;;;;;;;16.60;99.90;;;;;;5053586;28;19931;-80
2022/06/01 11:34:01;;;;;;;;;;;16.40;99.90;;;;;;5087212;28;19966;-80
2022/06/01 11:36:30;;;;;;;;;;;16.40;99.90;;;;;;5071334;28;20179;-80
2022/06/01 11:39:00;;;;;;;;;;;16.40;99.90;;;;;;5071184;28;20006;-79
2022/06/01 11:41:31;;;;;;;;;;;16.40;99.90;;;;;;5087096;28;19931;-80
2022/06/01 11:43:59;;;;;;;;;;;16.40;99.90;;;;;;5070126;28;20432;-81
2022/06/01 11:46:37;;;;;;;;;;;16.30;99.90;;;;;;5053122;28;20743;-80
2022/06/01 11:49:13;;;;;;;;;;;16.20;99.90;;;;;;5052366;28;19933;-80
2022/06/01 11:51:47;;;;;;;;;;;16.10;99.90;;;;;;5085982;28;20314;-80
2022/06/01 11:54:23;;;;;;;;;;;16.40;99.90;;;;;;5051551;28;20282;-79
2022/06/01 11:57:08;;;;;;;;;;;16.50;99.90;;;;;;5051980;28;19928;-80
2022/06/01 11:59:44;;;;;;;;;;;16.40;99.90;;;;;;5085327;28;19924;-80
2022/06/01 12:02:18;;;;;;;;;;;16.40;99.90;;;;;;5069900;28;19935;-80
2022/06/01 12:04:54;;;;;;;;;;;16.30;99.90;;;;;;5051568;28;19925;-79
2022/06/01 12:07:31;;;;;;;;;;;16.20;99.90;;;;;;5085565;28;19924;-80
2022/06/01 12:10:01;;;;;;;;;;;16.20;99.90;;;;;;5038100;28;20019;-80
2022/06/01 12:12:36;;;;;;;;;;;16.20;99.90;;;;;;5085932;28;19971;-80
2022/06/01 12:15:02;;;;;;;;;;;16.30;99.90;;;;;;5052913;28;19928;-80
2022/06/01 12:17:29;;;;;;;;;;;16.40;99.90;;;;;;5094951;28;19971;-79
2022/06/01 12:20:13;;;;;;;;;;;16.50;99.90;;;;;;5046265;28;19928;-80
2022/06/01 12:28:51;;;;;;;;;;;17.10;99.90;;;;;;5085799;28;20390;-80
2022/06/01 12:31:19;;;;;;;;;;;17.40;99.90;;;;;;5085741;28;20058;-80
2022/06/01 12:33:59;;;;;;;;;;;17.50;99.90;;;;;;5052162;28;20007;-80
2022/06/01 12:36:26;;;;;;;;;;;17.50;99.90;;;;;;5052863;28;19970;-80
2022/06/01 12:38:51;;;;;;;;;;;17.40;99.90;;;;;;5069995;28;19925;-80
2022/06/01 12:41:18;;;;;;;;;;;17.10;99.90;;;;;;5069698;28;19985;-80
2022/06/01 12:43:55;;;;;;;;;;;16.90;99.90;;;;;;5035154;28;19924;-80
2022/06/01 12:46:25;;;;;;;;;;;16.80;99.90;;;;;;5070227;28;19932;-79
2022/06/01 12:48:51;;;;;;;;;;;16.70;99.90;;;;;;5052124;28;19947;-80
2022/06/01 12:51:17;;;;;;;;;;;16.70;99.90;;;;;;5051993;28;20453;-80
2022/06/01 12:53:47;;;;;;;;;;;16.60;99.90;;;;;;5051632;28;19932;-80
2022/06/01 12:56:16;;;;;;;;;;;16.50;99.90;;;;;;5069872;28;19930;-80
2022/06/01 12:58:44;;;;;;;;;;;16.50;99.90;;;;;;5052045;28;19940;-80
2022/06/01 13:01:10;;;;;;;;;;;16.30;99.90;;;;;;5052011;28;19932;-80
2022/06/01 13:03:41;;;;;;;;;;;16.30;99.90;;;;;;5069854;28;20011;-80
2022/06/01 13:06:08;;;;;;;;;;;16.20;99.90;;;;;;5084930;28;20416;-79
2022/06/01 13:08:37;;;;;;;;;;;16.20;99.90;;;;;;5069931;28;20290;-80
2022/06/01 13:11:15;;;;;;;;;;;16.30;99.90;;;;;;5051551;28;20390;-80
2022/06/01 13:13:42;;;;;;;;;;;16.40;99.90;;;;;;5069461;28;19983;-80
2022/06/01 13:16:07;;;;;;;;;;;16.50;99.90;;;;;;5069556;28;20510;-80
2022/06/01 13:18:35;;;;;;;;;;;16.70;99.90;;;;;;5051226;28;19932;-81
2022/06/01 13:21:04;;;;;;;;;;;17.10;99.90;;;;;;5051603;28;19981;-80
2022/06/01 13:23:33;;;;;;;;;;;17.80;99.90;;;;;;5051389;28;19932;-80
2022/06/01 13:26:00;;;;;;;;;;;18.50;99.90;;;;;;5085139;28;19974;-80
2022/06/01 13:28:25;;;;;;;;;;;18.90;99.90;;;;;;5069644;28;19932;-81
2022/06/01 13:30:51;;;;;;;;;;;19.20;99.50;;;;;;5069576;28;19924;-80
2022/06/01 13:33:29;;;;;;;;;;;19.20;98.40;;;;;;5084887;28;19924;-80
2022/06/01 13:35:59;;;;;;;;;;;19.10;97.80;;;;;;5051088;28;20023;-80
2022/06/01 13:38:33;;;;;;;;;;;18.90;98.20;;;;;;5069461;28;19924;-80
2022/06/01 13:41:10;;;;;;;;;;;19.10;98.60;;;;;;5069153;28;20712;-80
2022/06/01 13:43:39;;;;;;;;;;;19.40;97.80;;;;;;5069229;28;19925;-80
2022/06/01 13:46:07;;;;;;;;;;;19.40;96.90;;;;;;5084593;28;19943;-80
2022/06/01 13:48:38;;;;;;;;;;;19.20;97.00;;;;;;5050823;28;19932;-80
2022/06/01 13:51:11;;;;;;;;;;;18.70;96.50;;;;;;5050829;28;19973;-80
2022/06/01 13:53:42;;;;;;;;;;;18.20;97.20;;;;;;5055805;28;19925;-80
2022/06/01 13:56:15;;;;;;;;;;;17.80;97.40;;;;;;5049887;28;19971;-80
2022/06/01 13:58:52;;;;;;;;;;;17.40;98.10;;;;;;5069491;28;20011;-79
2022/06/01 14:01:29;;;;;;;;;;;17.20;99.20;;;;;;5084522;28;19924;-80
2022/06/01 14:03:57;;;;;;;;;;;17.00;99.80;;;;;;5084670;28;19924;-80
2022/06/01 14:06:33;;;;;;;;;;;16.80;99.90;;;;;;5069068;28;20023;-80
2022/06/01 14:08:59;;;;;;;;;;;16.70;99.90;;;;;;5069198;28;19924;-80
2022/06/01 14:11:26;;;;;;;;;;;16.50;99.90;;;;;;5084186;28;19928;-80
2022/06/01 14:13:52;;;;;;;;;;;16.50;99.90;;;;;;5037577;28;20588;-80
2022/06/01 14:16:19;;;;;;;;;;;16.40;99.90;;;;;;5068988;28;19925;-80
2022/06/01 14:18:55;;;;;;;;;;;16.40;99.90;;;;;;5069009;28;19932;-80
2022/06/01 14:21:21;;;;;;;;;;;16.40;99.90;;;;;;5069072;28;19924;-80
2022/06/01 14:23:46;;;;;;;;;;;16.30;99.90;;;;;;5084353;28;20530;-80
2022/06/01 14:28:56;;;;;;;;;;;16.30;99.90;;;;;;5065262;28;19962;-80
2022/06/01 14:31:24;;;;;;;;;;;16.30;99.90;;;;;;5070015;28;19924;-80
2022/06/01 14:33:49;;;;;;;;;;;16.20;99.90;;;;;;5054061;28;19925;-79
2022/06/01 14:36:15;;;;;;;;;;;16.20;99.90;;;;;;5072403;28;20259;-80
2022/06/01 14:38:40;;;;;;;;;;;16.10;99.90;;;;;;5054443;28;19928;-80
2022/06/01 14:41:08;;;;;;;;;;;16.00;99.90;;;;;;5054354;28;19952;-80
2022/06/01 14:43:39;;;;;;;;;;;15.90;99.90;;;;;;5054015;28;19925;-80
2022/06/01 14:46:05;;;;;;;;;;;15.90;99.90;;;;;;5071966;28;19977;-80
2022/06/01 14:48:31;;;;;;;;;;;16.00;99.90;;;;;;5088284;28;20366;-80
2022/06/01 14:51:11;;;;;;;;;;;16.00;99.90;;;;;;5054310;28;19985;-80
2022/06/01 14:53:38;;;;;;;;;;;16.00;99.90;;;;;;5053889;28;19925;-80
2022/06/01 14:56:04;;;;;;;;;;;16.10;99.90;;;;;;5071880;28;20015;-80
2022/06/01 14:58:30;;;;;;;;;;;16.20;99.90;;;;;;5087817;28;19925;-80